sensor_id;sensor_type;location;lat;lon;timestamp;P1;durP1;ratioP1;P2;durP2;ratioP2
69280;SDS011;56392;51.082;17.080;2023-06-14T00:02:14;9.85;;;4.90;;
69280;SDS011;56392;51.082;17.080;2023-06-14T00:07:38;10.07;;;4.33;;
69280;SDS011;56392;51.082;17.080;2023-06-14T00:13:05;10.63;;;4.40;;
69280;SDS011;56392;51.082;17.080;2023-06-14T00:18:29;8.52;;;4.30;;
69280;SDS011;56392;51.082;17.080;2023-06-14T00:23:52;9.30;;;4.40;;
69280;SDS011;56392;51.082;17.080;2023-06-14T00:29:16;12.50;;;4.60;;
69280;SDS011;56392;51.082;17.080;2023-06-14T00:34:39;9.27;;;4.20;;
69280;SDS011;56392;51.082;17.080;2023-06-14T00:40:03;8.63;;;4.20;;
69280;SDS011;56392;51.082;17.080;2023-06-14T00:45:28;12.17;;;4.30;;
69280;SDS011;56392;51.082;17.080;2023-06-14T00:50:53;8.55;;;4.07;;
69280;SDS011;56392;51.082;17.080;2023-06-14T00:56:17;9.85;;;4.10;;
69280;SDS011;56392;51.082;17.080;2023-06-14T01:01:43;8.07;;;3.93;;
69280;SDS011;56392;51.082;17.080;2023-06-14T01:07:10;8.23;;;3.78;;
69280;SDS011;56392;51.082;17.080;2023-06-14T01:12:44;10.13;;;4.50;;
69280;SDS011;56392;51.082;17.080;2023-06-14T01:18:17;9.47;;;4.23;;
69280;SDS011;56392;51.082;17.080;2023-06-14T01:23:41;10.55;;;4.55;;
69280;SDS011;56392;51.082;17.080;2023-06-14T01:29:05;9.43;;;4.00;;
69280;SDS011;56392;51.082;17.080;2023-06-14T01:34:29;9.47;;;4.30;;
69280;SDS011;56392;51.082;17.080;2023-06-14T01:39:54;9.23;;;4.20;;
69280;SDS011;56392;51.082;17.080;2023-06-14T01:45:18;9.52;;;4.43;;
69280;SDS011;56392;51.082;17.080;2023-06-14T01:50:41;9.57;;;4.40;;
69280;SDS011;56392;51.082;17.080;2023-06-14T01:56:06;8.97;;;4.33;;
69280;SDS011;56392;51.082;17.080;2023-06-14T02:01:29;10.10;;;4.57;;
69280;SDS011;56392;51.082;17.080;2023-06-14T02:06:52;9.38;;;4.55;;
69280;SDS011;56392;51.082;17.080;2023-06-14T02:12:17;9.30;;;4.50;;
69280;SDS011;56392;51.082;17.080;2023-06-14T02:17:40;9.38;;;4.88;;
69280;SDS011;56392;51.082;17.080;2023-06-14T02:23:03;9.90;;;5.28;;
69280;SDS011;56392;51.082;17.080;2023-06-14T02:28:28;10.63;;;4.90;;
69280;SDS011;56392;51.082;17.080;2023-06-14T02:33:51;9.50;;;5.00;;
69280;SDS011;56392;51.082;17.080;2023-06-14T02:39:14;12.65;;;4.65;;
69280;SDS011;56392;51.082;17.080;2023-06-14T02:44:39;9.38;;;4.50;;
69280;SDS011;56392;51.082;17.080;2023-06-14T02:50:02;9.47;;;4.70;;
69280;SDS011;56392;51.082;17.080;2023-06-14T02:55:26;9.95;;;4.72;;
69280;SDS011;56392;51.082;17.080;2023-06-14T03:00:50;9.02;;;4.57;;
69280;SDS011;56392;51.082;17.080;2023-06-14T03:06:15;11.43;;;4.67;;
69280;SDS011;56392;51.082;17.080;2023-06-14T03:11:38;11.63;;;4.75;;
69280;SDS011;56392;51.082;17.080;2023-06-14T03:17:05;11.25;;;5.03;;
69280;SDS011;56392;51.082;17.080;2023-06-14T03:22:29;10.33;;;4.80;;
69280;SDS011;56392;51.082;17.080;2023-06-14T03:27:53;11.17;;;4.70;;
69280;SDS011;56392;51.082;17.080;2023-06-14T03:33:19;9.32;;;4.35;;
69280;SDS011;56392;51.082;17.080;2023-06-14T03:38:43;10.52;;;4.35;;
69280;SDS011;56392;51.082;17.080;2023-06-14T03:44:06;10.83;;;5.00;;
69280;SDS011;56392;51.082;17.080;2023-06-14T03:49:30;10.98;;;5.18;;
69280;SDS011;56392;51.082;17.080;2023-06-14T03:54:53;10.05;;;5.47;;
69280;SDS011;56392;51.082;17.080;2023-06-14T04:00:17;10.23;;;4.93;;
69280;SDS011;56392;51.082;17.080;2023-06-14T04:05:42;9.27;;;4.60;;
69280;SDS011;56392;51.082;17.080;2023-06-14T04:11:05;9.60;;;5.28;;
69280;SDS011;56392;51.082;17.080;2023-06-14T04:16:29;10.87;;;5.30;;
69280;SDS011;56392;51.082;17.080;2023-06-14T04:21:53;11.47;;;5.20;;
69280;SDS011;56392;51.082;17.080;2023-06-14T04:27:16;12.38;;;5.28;;
69280;SDS011;56392;51.082;17.080;2023-06-14T04:32:42;10.90;;;5.95;;
69280;SDS011;56392;51.082;17.080;2023-06-14T04:38:08;18.27;;;6.60;;
69280;SDS011;56392;51.082;17.080;2023-06-14T04:43:31;13.18;;;6.55;;
69280;SDS011;56392;51.082;17.080;2023-06-14T04:48:59;13.35;;;5.20;;
69280;SDS011;56392;51.082;17.080;2023-06-14T04:54:25;10.50;;;5.53;;
69280;SDS011;56392;51.082;17.080;2023-06-14T04:59:48;10.85;;;5.65;;
69280;SDS011;56392;51.082;17.080;2023-06-14T05:05:16;11.23;;;5.57;;
69280;SDS011;56392;51.082;17.080;2023-06-14T05:10:42;12.83;;;6.30;;
69280;SDS011;56392;51.082;17.080;2023-06-14T05:16:05;12.23;;;5.93;;
69280;SDS011;56392;51.082;17.080;2023-06-14T05:21:31;13.60;;;6.18;;
69280;SDS011;56392;51.082;17.080;2023-06-14T05:26:57;14.25;;;7.25;;
69280;SDS011;56392;51.082;17.080;2023-06-14T05:32:20;13.47;;;6.40;;
69280;SDS011;56392;51.082;17.080;2023-06-14T05:37:43;15.45;;;7.10;;
69280;SDS011;56392;51.082;17.080;2023-06-14T05:43:08;15.10;;;7.63;;
69280;SDS011;56392;51.082;17.080;2023-06-14T05:48:31;14.30;;;7.60;;
69280;SDS011;56392;51.082;17.080;2023-06-14T05:53:54;14.23;;;7.68;;
69280;SDS011;56392;51.082;17.080;2023-06-14T05:59:19;14.13;;;7.63;;
69280;SDS011;56392;51.082;17.080;2023-06-14T06:04:42;15.30;;;8.37;;
69280;SDS011;56392;51.082;17.080;2023-06-14T06:10:06;16.93;;;8.57;;
69280;SDS011;56392;51.082;17.080;2023-06-14T06:15:32;16.23;;;8.95;;
69280;SDS011;56392;51.082;17.080;2023-06-14T06:20:55;14.40;;;8.93;;
69280;SDS011;56392;51.082;17.080;2023-06-14T06:26:18;16.50;;;8.93;;
69280;SDS011;56392;51.082;17.080;2023-06-14T06:31:43;16.00;;;8.77;;
69280;SDS011;56392;51.082;17.080;2023-06-14T06:37:07;16.42;;;8.82;;
69280;SDS011;56392;51.082;17.080;2023-06-14T06:42:30;17.33;;;8.97;;
69280;SDS011;56392;51.082;17.080;2023-06-14T06:47:55;15.38;;;8.88;;
69280;SDS011;56392;51.082;17.080;2023-06-14T06:53:18;21.45;;;9.82;;
69280;SDS011;56392;51.082;17.080;2023-06-14T06:58:41;17.13;;;8.97;;
69280;SDS011;56392;51.082;17.080;2023-06-14T07:04:06;16.17;;;9.20;;
69280;SDS011;56392;51.082;17.080;2023-06-14T07:09:29;15.77;;;9.50;;
69280;SDS011;56392;51.082;17.080;2023-06-14T07:14:52;18.85;;;10.18;;
69280;SDS011;56392;51.082;17.080;2023-06-14T07:20:16;18.07;;;10.40;;
69280;SDS011;56392;51.082;17.080;2023-06-14T07:25:39;18.85;;;10.43;;
69280;SDS011;56392;51.082;17.080;2023-06-14T07:31:02;17.13;;;10.32;;
69280;SDS011;56392;51.082;17.080;2023-06-14T07:36:27;17.20;;;9.63;;
69280;SDS011;56392;51.082;17.080;2023-06-14T07:41:50;17.33;;;9.63;;
69280;SDS011;56392;51.082;17.080;2023-06-14T07:47:13;15.93;;;9.18;;
69280;SDS011;56392;51.082;17.080;2023-06-14T07:52:37;17.40;;;8.50;;
69280;SDS011;56392;51.082;17.080;2023-06-14T07:58:01;14.13;;;8.07;;
69280;SDS011;56392;51.082;17.080;2023-06-14T08:03:24;14.45;;;8.32;;
69280;SDS011;56392;51.082;17.080;2023-06-14T08:08:49;13.30;;;7.45;;
69280;SDS011;56392;51.082;17.080;2023-06-14T08:14:12;13.70;;;8.27;;
69280;SDS011;56392;51.082;17.080;2023-06-14T08:19:35;18.25;;;9.05;;
69280;SDS011;56392;51.082;17.080;2023-06-14T08:24:59;17.92;;;8.90;;
69280;SDS011;56392;51.082;17.080;2023-06-14T08:30:22;13.10;;;8.17;;
69280;SDS011;56392;51.082;17.080;2023-06-14T08:35:47;14.48;;;7.93;;
69280;SDS011;56392;51.082;17.080;2023-06-14T08:41:12;13.90;;;7.63;;
69280;SDS011;56392;51.082;17.080;2023-06-14T08:46:43;14.20;;;8.00;;
69280;SDS011;56392;51.082;17.080;2023-06-14T08:52:07;15.40;;;8.10;;
69280;SDS011;56392;51.082;17.080;2023-06-14T08:57:35;12.27;;;7.20;;
69280;SDS011;56392;51.082;17.080;2023-06-14T09:02:59;13.85;;;6.93;;
69280;SDS011;56392;51.082;17.080;2023-06-14T09:08:25;11.57;;;7.00;;
69280;SDS011;56392;51.082;17.080;2023-06-14T09:13:50;16.90;;;7.43;;
69280;SDS011;56392;51.082;17.080;2023-06-14T09:19:13;16.63;;;7.05;;
69280;SDS011;56392;51.082;17.080;2023-06-14T09:24:36;14.73;;;7.50;;
69280;SDS011;56392;51.082;17.080;2023-06-14T09:30:01;13.02;;;6.93;;
69280;SDS011;56392;51.082;17.080;2023-06-14T09:35:25;13.57;;;6.60;;
69280;SDS011;56392;51.082;17.080;2023-06-14T09:40:51;13.17;;;6.83;;
69280;SDS011;56392;51.082;17.080;2023-06-14T09:46:15;10.47;;;5.57;;
69280;SDS011;56392;51.082;17.080;2023-06-14T09:51:42;11.95;;;5.20;;
69280;SDS011;56392;51.082;17.080;2023-06-14T09:57:06;11.35;;;4.30;;
69280;SDS011;56392;51.082;17.080;2023-06-14T10:02:34;10.73;;;4.60;;
69280;SDS011;56392;51.082;17.080;2023-06-14T10:08:00;9.60;;;4.50;;
69280;SDS011;56392;51.082;17.080;2023-06-14T10:13:27;13.15;;;4.28;;
69280;SDS011;56392;51.082;17.080;2023-06-14T10:18:59;10.87;;;4.13;;
69280;SDS011;56392;51.082;17.080;2023-06-14T10:24:29;9.80;;;4.30;;
69280;SDS011;56392;51.082;17.080;2023-06-14T10:30:02;10.35;;;4.20;;
69280;SDS011;56392;51.082;17.080;2023-06-14T10:35:28;9.43;;;4.17;;
69280;SDS011;56392;51.082;17.080;2023-06-14T10:40:52;10.50;;;4.57;;
69280;SDS011;56392;51.082;17.080;2023-06-14T10:46:17;8.30;;;3.75;;
69280;SDS011;56392;51.082;17.080;2023-06-14T10:51:45;10.57;;;3.97;;
69280;SDS011;56392;51.082;17.080;2023-06-14T10:57:13;10.80;;;4.13;;
69280;SDS011;56392;51.082;17.080;2023-06-14T11:02:45;7.68;;;3.92;;
69280;SDS011;56392;51.082;17.080;2023-06-14T11:08:25;10.18;;;4.43;;
69280;SDS011;56392;51.082;17.080;2023-06-14T11:13:54;9.97;;;4.20;;
69280;SDS011;56392;51.082;17.080;2023-06-14T11:19:17;7.93;;;4.00;;
69280;SDS011;56392;51.082;17.080;2023-06-14T11:24:42;8.85;;;3.78;;
69280;SDS011;56392;51.082;17.080;2023-06-14T11:30:07;7.63;;;4.00;;
69280;SDS011;56392;51.082;17.080;2023-06-14T11:35:31;11.43;;;4.00;;
69280;SDS011;56392;51.082;17.080;2023-06-14T11:40:59;8.40;;;3.88;;
69280;SDS011;56392;51.082;17.080;2023-06-14T11:46:23;9.93;;;3.88;;
69280;SDS011;56392;51.082;17.080;2023-06-14T11:51:48;9.63;;;3.80;;
69280;SDS011;56392;51.082;17.080;2023-06-14T11:57:12;9.75;;;3.90;;
69280;SDS011;56392;51.082;17.080;2023-06-14T12:02:35;11.88;;;3.30;;
69280;SDS011;56392;51.082;17.080;2023-06-14T12:07:58;9.77;;;4.00;;
69280;SDS011;56392;51.082;17.080;2023-06-14T12:13:24;8.53;;;3.73;;
69280;SDS011;56392;51.082;17.080;2023-06-14T12:18:48;8.27;;;3.67;;
69280;SDS011;56392;51.082;17.080;2023-06-14T12:24:12;8.30;;;3.35;;
69280;SDS011;56392;51.082;17.080;2023-06-14T12:29:37;7.67;;;3.33;;
69280;SDS011;56392;51.082;17.080;2023-06-14T12:35:00;8.27;;;3.63;;
69280;SDS011;56392;51.082;17.080;2023-06-14T12:40:24;11.43;;;3.70;;
69280;SDS011;56392;51.082;17.080;2023-06-14T12:45:50;8.40;;;3.50;;
69280;SDS011;56392;51.082;17.080;2023-06-14T12:51:13;9.43;;;3.80;;
69280;SDS011;56392;51.082;17.080;2023-06-14T12:56:37;9.25;;;4.15;;
69280;SDS011;56392;51.082;17.080;2023-06-14T13:02:11;9.73;;;3.93;;
69280;SDS011;56392;51.082;17.080;2023-06-14T13:07:39;9.10;;;4.20;;
69280;SDS011;56392;51.082;17.080;2023-06-14T13:13:03;8.77;;;4.60;;
69280;SDS011;56392;51.082;17.080;2023-06-14T13:18:30;12.13;;;4.22;;
69280;SDS011;56392;51.082;17.080;2023-06-14T13:23:53;12.90;;;4.20;;
69280;SDS011;56392;51.082;17.080;2023-06-14T13:29:16;8.63;;;3.90;;
69280;SDS011;56392;51.082;17.080;2023-06-14T13:34:41;8.60;;;4.05;;
69280;SDS011;56392;51.082;17.080;2023-06-14T13:40:04;12.40;;;4.47;;
69280;SDS011;56392;51.082;17.080;2023-06-14T13:45:29;9.35;;;4.10;;
69280;SDS011;56392;51.082;17.080;2023-06-14T13:50:53;9.73;;;4.32;;
69280;SDS011;56392;51.082;17.080;2023-06-14T13:56:16;10.50;;;4.20;;
69280;SDS011;56392;51.082;17.080;2023-06-14T14:01:41;7.87;;;4.00;;
69280;SDS011;56392;51.082;17.080;2023-06-14T14:07:06;8.77;;;3.90;;
69280;SDS011;56392;51.082;17.080;2023-06-14T14:12:29;9.95;;;4.40;;
69280;SDS011;56392;51.082;17.080;2023-06-14T14:17:52;7.40;;;3.87;;
69280;SDS011;56392;51.082;17.080;2023-06-14T14:23:21;7.50;;;3.10;;
69280;SDS011;56392;51.082;17.080;2023-06-14T14:28:44;8.27;;;3.40;;
69280;SDS011;56392;51.082;17.080;2023-06-14T14:34:07;7.00;;;3.20;;
69280;SDS011;56392;51.082;17.080;2023-06-14T14:39:31;8.30;;;3.17;;
69280;SDS011;56392;51.082;17.080;2023-06-14T14:44:54;8.45;;;3.35;;
69280;SDS011;56392;51.082;17.080;2023-06-14T14:50:17;7.90;;;3.80;;
69280;SDS011;56392;51.082;17.080;2023-06-14T14:55:42;9.33;;;4.00;;
69280;SDS011;56392;51.082;17.080;2023-06-14T15:01:07;9.48;;;4.68;;
69280;SDS011;56392;51.082;17.080;2023-06-14T15:06:30;39.72;;;16.13;;
69280;SDS011;56392;51.082;17.080;2023-06-14T15:11:55;17.20;;;9.50;;
69280;SDS011;56392;51.082;17.080;2023-06-14T15:17:19;13.82;;;7.00;;
69280;SDS011;56392;51.082;17.080;2023-06-14T15:22:43;12.27;;;6.05;;
69280;SDS011;56392;51.082;17.080;2023-06-14T15:28:07;9.83;;;5.00;;
69280;SDS011;56392;51.082;17.080;2023-06-14T15:33:31;9.93;;;4.97;;
69280;SDS011;56392;51.082;17.080;2023-06-14T15:38:54;10.10;;;5.38;;
69280;SDS011;56392;51.082;17.080;2023-06-14T15:44:18;10.13;;;5.20;;
69280;SDS011;56392;51.082;17.080;2023-06-14T15:49:42;9.90;;;5.00;;
69280;SDS011;56392;51.082;17.080;2023-06-14T15:55:05;10.88;;;5.40;;
69280;SDS011;56392;51.082;17.080;2023-06-14T16:00:30;9.23;;;5.20;;
69280;SDS011;56392;51.082;17.080;2023-06-14T16:05:53;10.07;;;4.93;;
69280;SDS011;56392;51.082;17.080;2023-06-14T16:11:16;10.20;;;5.32;;
69280;SDS011;56392;51.082;17.080;2023-06-14T16:16:41;10.48;;;5.05;;
69280;SDS011;56392;51.082;17.080;2023-06-14T16:22:04;9.43;;;4.87;;
69280;SDS011;56392;51.082;17.080;2023-06-14T16:27:28;9.77;;;4.60;;
69280;SDS011;56392;51.082;17.080;2023-06-14T16:32:52;7.88;;;3.97;;
69280;SDS011;56392;51.082;17.080;2023-06-14T16:38:15;7.30;;;3.70;;
69280;SDS011;56392;51.082;17.080;2023-06-14T16:43:40;10.30;;;4.10;;
69280;SDS011;56392;51.082;17.080;2023-06-14T16:49:05;8.68;;;4.30;;
69280;SDS011;56392;51.082;17.080;2023-06-14T16:54:28;9.27;;;4.20;;
69280;SDS011;56392;51.082;17.080;2023-06-14T16:59:51;8.20;;;4.03;;
69280;SDS011;56392;51.082;17.080;2023-06-14T17:05:18;10.13;;;4.45;;
69280;SDS011;56392;51.082;17.080;2023-06-14T17:10:41;8.10;;;3.95;;
69280;SDS011;56392;51.082;17.080;2023-06-14T17:16:06;10.27;;;4.50;;
69280;SDS011;56392;51.082;17.080;2023-06-14T17:21:33;8.75;;;4.38;;
69280;SDS011;56392;51.082;17.080;2023-06-14T17:26:59;10.23;;;4.50;;
69280;SDS011;56392;51.082;17.080;2023-06-14T17:32:22;11.27;;;4.30;;
69280;SDS011;56392;51.082;17.080;2023-06-14T17:37:47;9.03;;;4.33;;
69280;SDS011;56392;51.082;17.080;2023-06-14T17:43:10;9.52;;;4.00;;
69280;SDS011;56392;51.082;17.080;2023-06-14T17:48:34;11.00;;;3.88;;
69280;SDS011;56392;51.082;17.080;2023-06-14T17:53:58;7.53;;;3.57;;
69280;SDS011;56392;51.082;17.080;2023-06-14T17:59:21;9.57;;;3.80;;
69280;SDS011;56392;51.082;17.080;2023-06-14T18:04:45;8.27;;;3.70;;
69280;SDS011;56392;51.082;17.080;2023-06-14T18:10:10;7.23;;;3.40;;
69280;SDS011;56392;51.082;17.080;2023-06-14T18:15:38;8.23;;;3.83;;
69280;SDS011;56392;51.082;17.080;2023-06-14T18:21:01;7.90;;;3.70;;
69280;SDS011;56392;51.082;17.080;2023-06-14T18:26:26;9.67;;;4.00;;
69280;SDS011;56392;51.082;17.080;2023-06-14T18:31:49;9.87;;;3.87;;
69280;SDS011;56392;51.082;17.080;2023-06-14T18:37:12;8.63;;;3.67;;
69280;SDS011;56392;51.082;17.080;2023-06-14T18:42:37;7.60;;;3.72;;
69280;SDS011;56392;51.082;17.080;2023-06-14T18:48:01;8.73;;;3.60;;
69280;SDS011;56392;51.082;17.080;2023-06-14T18:53:25;8.27;;;3.70;;
69280;SDS011;56392;51.082;17.080;2023-06-14T18:58:50;7.05;;;3.53;;
69280;SDS011;56392;51.082;17.080;2023-06-14T19:04:13;10.53;;;3.90;;
69280;SDS011;56392;51.082;17.080;2023-06-14T19:09:37;8.93;;;4.00;;
69280;SDS011;56392;51.082;17.080;2023-06-14T19:15:01;9.32;;;4.72;;
69280;SDS011;56392;51.082;17.080;2023-06-14T19:20:25;8.53;;;3.97;;
69280;SDS011;56392;51.082;17.080;2023-06-14T19:25:50;7.53;;;3.80;;
69280;SDS011;56392;51.082;17.080;2023-06-14T19:31:15;9.15;;;3.70;;
69280;SDS011;56392;51.082;17.080;2023-06-14T19:36:39;8.77;;;3.85;;
69280;SDS011;56392;51.082;17.080;2023-06-14T19:42:02;7.47;;;3.67;;
69280;SDS011;56392;51.082;17.080;2023-06-14T19:47:27;8.57;;;3.75;;
69280;SDS011;56392;51.082;17.080;2023-06-14T19:52:50;8.98;;;3.90;;
69280;SDS011;56392;51.082;17.080;2023-06-14T19:58:16;7.47;;;3.70;;
69280;SDS011;56392;51.082;17.080;2023-06-14T20:03:41;12.60;;;3.88;;
69280;SDS011;56392;51.082;17.080;2023-06-14T20:09:05;8.05;;;3.60;;
69280;SDS011;56392;51.082;17.080;2023-06-14T20:14:33;9.87;;;3.50;;
69280;SDS011;56392;51.082;17.080;2023-06-14T20:19:57;8.90;;;3.93;;
69280;SDS011;56392;51.082;17.080;2023-06-14T20:25:21;9.25;;;3.70;;
69280;SDS011;56392;51.082;17.080;2023-06-14T20:30:44;8.02;;;3.90;;
69280;SDS011;56392;51.082;17.080;2023-06-14T20:36:08;8.70;;;4.00;;
69280;SDS011;56392;51.082;17.080;2023-06-14T20:41:31;8.23;;;3.50;;
69280;SDS011;56392;51.082;17.080;2023-06-14T20:46:55;7.93;;;3.85;;
69280;SDS011;56392;51.082;17.080;2023-06-14T20:52:20;8.60;;;3.83;;
69280;SDS011;56392;51.082;17.080;2023-06-14T20:57:43;7.50;;;3.88;;
69280;SDS011;56392;51.082;17.080;2023-06-14T21:03:06;8.00;;;4.15;;
69280;SDS011;56392;51.082;17.080;2023-06-14T21:08:30;8.23;;;4.10;;
69280;SDS011;56392;51.082;17.080;2023-06-14T21:13:54;8.60;;;4.37;;
69280;SDS011;56392;51.082;17.080;2023-06-14T21:19:17;8.60;;;4.10;;
69280;SDS011;56392;51.082;17.080;2023-06-14T21:24:41;8.65;;;4.25;;
69280;SDS011;56392;51.082;17.080;2023-06-14T21:30:05;8.53;;;4.40;;
69280;SDS011;56392;51.082;17.080;2023-06-14T21:35:29;8.63;;;4.32;;
69280;SDS011;56392;51.082;17.080;2023-06-14T21:40:54;8.60;;;4.38;;
69280;SDS011;56392;51.082;17.080;2023-06-14T21:46:17;8.53;;;4.20;;
69280;SDS011;56392;51.082;17.080;2023-06-14T21:51:40;9.05;;;4.50;;
69280;SDS011;56392;51.082;17.080;2023-06-14T21:57:05;8.05;;;4.10;;
69280;SDS011;56392;51.082;17.080;2023-06-14T22:02:29;10.13;;;4.50;;
69280;SDS011;56392;51.082;17.080;2023-06-14T22:07:52;9.10;;;4.60;;
69280;SDS011;56392;51.082;17.080;2023-06-14T22:13:17;12.02;;;5.03;;
69280;SDS011;56392;51.082;17.080;2023-06-14T22:18:40;10.55;;;5.47;;
69280;SDS011;56392;51.082;17.080;2023-06-14T22:24:07;9.17;;;5.07;;
69280;SDS011;56392;51.082;17.080;2023-06-14T22:29:31;10.23;;;5.57;;
69280;SDS011;56392;51.082;17.080;2023-06-14T22:34:55;11.93;;;6.25;;
69280;SDS011;56392;51.082;17.080;2023-06-14T22:40:24;11.43;;;6.17;;
69280;SDS011;56392;51.082;17.080;2023-06-14T22:45:48;10.18;;;5.78;;
69280;SDS011;56392;51.082;17.080;2023-06-14T22:51:12;10.43;;;5.30;;
69280;SDS011;56392;51.082;17.080;2023-06-14T22:56:36;11.87;;;5.93;;
69280;SDS011;56392;51.082;17.080;2023-06-14T23:02:01;12.00;;;5.90;;
69280;SDS011;56392;51.082;17.080;2023-06-14T23:07:25;10.57;;;5.35;;
69280;SDS011;56392;51.082;17.080;2023-06-14T23:12:48;10.75;;;5.78;;
69280;SDS011;56392;51.082;17.080;2023-06-14T23:18:13;11.23;;;5.50;;
69280;SDS011;56392;51.082;17.080;2023-06-14T23:23:36;11.35;;;5.88;;
69280;SDS011;56392;51.082;17.080;2023-06-14T23:29:00;13.07;;;6.32;;
69280;SDS011;56392;51.082;17.080;2023-06-14T23:34:25;10.27;;;6.03;;
69280;SDS011;56392;51.082;17.080;2023-06-14T23:39:50;10.40;;;5.95;;
69280;SDS011;56392;51.082;17.080;2023-06-14T23:45:15;9.73;;;5.70;;
69280;SDS011;56392;51.082;17.080;2023-06-14T23:50:40;10.27;;;5.97;;
69280;SDS011;56392;51.082;17.080;2023-06-14T23:56:03;11.37;;;5.73;;
